sensor_id;sensor_type;location;lat;lon;timestamp;temperature;humidity
18974;DHT22;9621;48.690;9.466;2022-12-18T07:39:18;-19.90;99.90
18974;DHT22;9621;48.690;9.466;2022-12-18T07:41:45;-20.00;99.90
18974;DHT22;9621;48.690;9.466;2022-12-18T07:44:32;-19.60;99.90
18974;DHT22;9621;48.690;9.466;2022-12-18T07:47:00;-19.10;99.90
18974;DHT22;9621;48.690;9.466;2022-12-18T07:49:30;-18.50;99.90
18974;DHT22;9621;48.690;9.466;2022-12-18T07:51:58;-18.00;99.90
18974;DHT22;9621;48.690;9.466;2022-12-18T07:54:28;-17.50;99.90
18974;DHT22;9621;48.690;9.466;2022-12-18T07:56:55;-17.00;99.90
18974;DHT22;9621;48.690;9.466;2022-12-18T07:59:31;-16.60;99.90
18974;DHT22;9621;48.690;9.466;2022-12-18T08:02:00;-16.20;99.90
18974;DHT22;9621;48.690;9.466;2022-12-18T08:04:32;-15.80;99.90
18974;DHT22;9621;48.690;9.466;2022-12-18T08:07:06;-15.40;99.90
18974;DHT22;9621;48.690;9.466;2022-12-18T08:09:40;-15.10;99.90
18974;DHT22;9621;48.690;9.466;2022-12-18T08:12:12;-14.80;99.90
18974;DHT22;9621;48.690;9.466;2022-12-18T08:14:46;-14.50;99.90
18974;DHT22;9621;48.690;9.466;2022-12-18T08:17:17;-14.30;99.90
18974;DHT22;9621;48.690;9.466;2022-12-18T08:19:44;-14.10;99.90
18974;DHT22;9621;48.690;9.466;2022-12-18T08:22:13;-13.80;99.90
18974;DHT22;9621;48.690;9.466;2022-12-18T08:25:02;-13.70;99.90
18974;DHT22;9621;48.690;9.466;2022-12-18T08:27:47;-13.50;99.90
18974;DHT22;9621;48.690;9.466;2022-12-18T08:30:18;-13.40;99.90
18974;DHT22;9621;48.690;9.466;2022-12-18T08:33:03;-13.30;99.90
18974;DHT22;9621;48.690;9.466;2022-12-18T08:35:45;-13.30;99.90
18974;DHT22;9621;48.690;9.466;2022-12-18T08:38:25;-13.10;99.90
18974;DHT22;9621;48.690;9.466;2022-12-18T08:41:15;-13.10;99.90
18974;DHT22;9621;48.690;9.466;2022-12-18T08:43:43;-12.90;99.90
18974;DHT22;9621;48.690;9.466;2022-12-18T08:46:37;-12.80;99.90
18974;DHT22;9621;48.690;9.466;2022-12-18T08:49:27;-12.60;99.90
18974;DHT22;9621;48.690;9.466;2022-12-18T08:52:08;-12.50;99.90
18974;DHT22;9621;48.690;9.466;2022-12-18T08:54:58;-12.20;99.90
18974;DHT22;9621;48.690;9.466;2022-12-18T08:57:30;-12.00;99.90
18974;DHT22;9621;48.690;9.466;2022-12-18T09:00:01;-11.90;99.90
18974;DHT22;9621;48.690;9.466;2022-12-18T09:02:37;-11.70;99.90
18974;DHT22;9621;48.690;9.466;2022-12-18T09:05:24;-11.40;99.90
18974;DHT22;9621;48.690;9.466;2022-12-18T09:11:47;-10.90;99.90
18974;DHT22;9621;48.690;9.466;2022-12-18T09:18:08;-10.10;99.90
18974;DHT22;9621;48.690;9.466;2022-12-18T09:21:11;-9.70;99.90
18974;DHT22;9621;48.690;9.466;2022-12-18T09:24:05;-9.20;99.90
18974;DHT22;9621;48.690;9.466;2022-12-18T09:26:38;-8.80;99.90
18974;DHT22;9621;48.690;9.466;2022-12-18T09:29:08;-8.40;99.90
18974;DHT22;9621;48.690;9.466;2022-12-18T09:31:45;-8.10;99.90
18974;DHT22;9621;48.690;9.466;2022-12-18T09:34:31;-7.70;99.90
18974;DHT22;9621;48.690;9.466;2022-12-18T09:37:08;-7.40;99.90
18974;DHT22;9621;48.690;9.466;2022-12-18T09:39:35;-6.90;99.90
18974;DHT22;9621;48.690;9.466;2022-12-18T09:42:03;-6.50;99.90
18974;DHT22;9621;48.690;9.466;2022-12-18T09:44:33;-6.10;99.90
18974;DHT22;9621;48.690;9.466;2022-12-18T09:47:06;-5.70;99.90
18974;DHT22;9621;48.690;9.466;2022-12-18T09:49:40;-3.60;99.90
18974;DHT22;9621;48.690;9.466;2022-12-18T09:52:14;-4.60;99.90
18974;DHT22;9621;48.690;9.466;2022-12-18T09:54:45;-5.00;99.90
18974;DHT22;9621;48.690;9.466;2022-12-18T09:57:15;-3.70;99.90
18974;DHT22;9621;48.690;9.466;2022-12-18T09:59:47;-4.10;99.90
18974;DHT22;9621;48.690;9.466;2022-12-18T10:02:21;-3.90;99.90
18974;DHT22;9621;48.690;9.466;2022-12-18T10:05:03;-3.50;99.90
18974;DHT22;9621;48.690;9.466;2022-12-18T10:10:33;-2.80;99.90
18974;DHT22;9621;48.690;9.466;2022-12-18T10:13:09;-2.50;99.90
18974;DHT22;9621;48.690;9.466;2022-12-18T10:15:47;-2.10;99.90
18974;DHT22;9621;48.690;9.466;2022-12-18T10:18:55;-1.80;99.90
18974;DHT22;9621;48.690;9.466;2022-12-18T10:21:36;-1.40;99.90
18974;DHT22;9621;48.690;9.466;2022-12-18T10:24:17;-1.00;99.90
18974;DHT22;9621;48.690;9.466;2022-12-18T10:26:52;-0.60;99.90
18974;DHT22;9621;48.690;9.466;2022-12-18T10:29:25;-0.30;99.90
18974;DHT22;9621;48.690;9.466;2022-12-18T10:31:52;0.00;99.90
18974;DHT22;9621;48.690;9.466;2022-12-18T10:34:19;0.20;99.90
18974;DHT22;9621;48.690;9.466;2022-12-18T10:36:48;0.40;99.90
18974;DHT22;9621;48.690;9.466;2022-12-18T10:39:17;0.60;99.90
18974;DHT22;9621;48.690;9.466;2022-12-18T10:41:45;0.80;99.90
18974;DHT22;9621;48.690;9.466;2022-12-18T10:44:16;0.90;99.90
18974;DHT22;9621;48.690;9.466;2022-12-18T10:46:45;1.30;99.90
18974;DHT22;9621;48.690;9.466;2022-12-18T10:49:24;1.50;99.90
18974;DHT22;9621;48.690;9.466;2022-12-18T10:52:07;1.80;99.90
18974;DHT22;9621;48.690;9.466;2022-12-18T10:54:38;2.10;99.90
18974;DHT22;9621;48.690;9.466;2022-12-18T10:57:15;3.00;99.90
18974;DHT22;9621;48.690;9.466;2022-12-18T10:59:51;2.70;99.90
18974;DHT22;9621;48.690;9.466;2022-12-18T11:02:27;2.90;99.90
18974;DHT22;9621;48.690;9.466;2022-12-18T11:04:55;3.20;99.90
18974;DHT22;9621;48.690;9.466;2022-12-18T11:07:24;3.30;99.90
18974;DHT22;9621;48.690;9.466;2022-12-18T11:10:00;3.40;99.90
18974;DHT22;9621;48.690;9.466;2022-12-18T11:12:28;3.70;99.90
18974;DHT22;9621;48.690;9.466;2022-12-18T11:14:56;3.70;99.90
18974;DHT22;9621;48.690;9.466;2022-12-18T11:17:31;4.00;99.90
18974;DHT22;9621;48.690;9.466;2022-12-18T11:20:00;3.90;99.90
18974;DHT22;9621;48.690;9.466;2022-12-18T11:22:30;4.00;99.90
18974;DHT22;9621;48.690;9.466;2022-12-18T11:24:59;4.80;99.90
18974;DHT22;9621;48.690;9.466;2022-12-18T11:27:28;4.10;99.90
18974;DHT22;9621;48.690;9.466;2022-12-18T11:30:07;4.50;99.90
18974;DHT22;9621;48.690;9.466;2022-12-18T11:32:37;4.30;99.90
18974;DHT22;9621;48.690;9.466;2022-12-18T11:35:15;4.50;99.90
18974;DHT22;9621;48.690;9.466;2022-12-18T11:37:48;4.60;99.90
18974;DHT22;9621;48.690;9.466;2022-12-18T11:40:18;4.70;99.90
18974;DHT22;9621;48.690;9.466;2022-12-18T11:42:51;4.80;99.90
18974;DHT22;9621;48.690;9.466;2022-12-18T11:45:28;5.30;99.90
18974;DHT22;9621;48.690;9.466;2022-12-18T11:48:03;5.10;99.90
18974;DHT22;9621;48.690;9.466;2022-12-18T11:50:41;5.10;99.90
18974;DHT22;9621;48.690;9.466;2022-12-18T11:53:12;5.30;99.90
18974;DHT22;9621;48.690;9.466;2022-12-18T11:55:45;5.50;99.90
18974;DHT22;9621;48.690;9.466;2022-12-18T11:58:22;5.60;99.90
18974;DHT22;9621;48.690;9.466;2022-12-18T12:01:11;5.70;99.90
18974;DHT22;9621;48.690;9.466;2022-12-18T12:03:51;5.70;99.90
18974;DHT22;9621;48.690;9.466;2022-12-18T12:06:24;5.80;99.90
18974;DHT22;9621;48.690;9.466;2022-12-18T12:09:02;5.80;99.90
18974;DHT22;9621;48.690;9.466;2022-12-18T12:11:39;5.80;99.90
18974;DHT22;9621;48.690;9.466;2022-12-18T12:14:20;5.80;99.90
18974;DHT22;9621;48.690;9.466;2022-12-18T12:16:57;5.90;99.90
18974;DHT22;9621;48.690;9.466;2022-12-18T12:19:38;5.80;99.90
18974;DHT22;9621;48.690;9.466;2022-12-18T12:22:17;5.60;99.90
18974;DHT22;9621;48.690;9.466;2022-12-18T12:24:56;5.00;99.90
18974;DHT22;9621;48.690;9.466;2022-12-18T12:27:30;5.30;99.90
18974;DHT22;9621;48.690;9.466;2022-12-18T12:30:04;5.20;99.90
18974;DHT22;9621;48.690;9.466;2022-12-18T12:32:49;5.10;99.90
18974;DHT22;9621;48.690;9.466;2022-12-18T12:35:29;4.80;99.90
18974;DHT22;9621;48.690;9.466;2022-12-18T12:38:07;4.60;99.90
18974;DHT22;9621;48.690;9.466;2022-12-18T12:40:39;4.50;99.90
18974;DHT22;9621;48.690;9.466;2022-12-18T12:43:27;4.30;99.90
18974;DHT22;9621;48.690;9.466;2022-12-18T12:45:59;4.00;99.90
18974;DHT22;9621;48.690;9.466;2022-12-18T12:48:35;3.80;99.90
18974;DHT22;9621;48.690;9.466;2022-12-18T12:51:09;3.40;99.90
18974;DHT22;9621;48.690;9.466;2022-12-18T12:53:38;3.00;99.90
18974;DHT22;9621;48.690;9.466;2022-12-18T12:56:15;2.70;99.90
18974;DHT22;9621;48.690;9.466;2022-12-18T12:58:57;3.20;99.90
18974;DHT22;9621;48.690;9.466;2022-12-18T13:01:31;2.00;99.90
18974;DHT22;9621;48.690;9.466;2022-12-18T13:04:10;1.60;99.90
18974;DHT22;9621;48.690;9.466;2022-12-18T13:06:45;2.10;99.90
18974;DHT22;9621;48.690;9.466;2022-12-18T13:09:14;0.90;99.90
18974;DHT22;9621;48.690;9.466;2022-12-18T13:11:45;0.60;99.90
18974;DHT22;9621;48.690;9.466;2022-12-18T13:14:41;0.30;99.90
18974;DHT22;9621;48.690;9.466;2022-12-18T13:17:27;0.10;99.90
18974;DHT22;9621;48.690;9.466;2022-12-18T13:20:13;-0.10;99.90
18974;DHT22;9621;48.690;9.466;2022-12-18T13:22:49;-0.30;99.90
18974;DHT22;9621;48.690;9.466;2022-12-18T13:25:31;-0.40;99.90
18974;DHT22;9621;48.690;9.466;2022-12-18T13:28:18;-0.50;99.90
18974;DHT22;9621;48.690;9.466;2022-12-18T13:30:52;-0.60;99.90
18974;DHT22;9621;48.690;9.466;2022-12-18T13:33:42;-0.70;99.90
18974;DHT22;9621;48.690;9.466;2022-12-18T13:36:25;-0.90;99.90
18974;DHT22;9621;48.690;9.466;2022-12-18T13:45:59;-1.10;99.90
18974;DHT22;9621;48.690;9.466;2022-12-18T13:48:29;-1.20;99.90
18974;DHT22;9621;48.690;9.466;2022-12-18T13:51:00;-1.20;99.90
18974;DHT22;9621;48.690;9.466;2022-12-18T13:53:32;-1.30;99.90
18974;DHT22;9621;48.690;9.466;2022-12-18T13:55:59;-1.30;99.90
18974;DHT22;9621;48.690;9.466;2022-12-18T13:58:27;-1.40;99.90
18974;DHT22;9621;48.690;9.466;2022-12-18T14:00:54;-1.40;99.90
18974;DHT22;9621;48.690;9.466;2022-12-18T14:03:25;-1.40;99.90
18974;DHT22;9621;48.690;9.466;2022-12-18T14:05:55;-1.60;99.90
18974;DHT22;9621;48.690;9.466;2022-12-18T14:08:23;-1.50;99.90
18974;DHT22;9621;48.690;9.466;2022-12-18T14:10:52;-1.60;99.90
18974;DHT22;9621;48.690;9.466;2022-12-18T14:13:24;-0.70;99.90
18974;DHT22;9621;48.690;9.466;2022-12-18T14:15:54;-1.90;99.90
18974;DHT22;9621;48.690;9.466;2022-12-18T14:18:25;-1.80;99.90
18974;DHT22;9621;48.690;9.466;2022-12-18T14:20:55;-0.70;99.90
18974;DHT22;9621;48.690;9.466;2022-12-18T14:23:32;-2.00;99.90
18974;DHT22;9621;48.690;9.466;2022-12-18T14:26:00;-1.50;99.90
18974;DHT22;9621;48.690;9.466;2022-12-18T14:28:28;-2.10;99.90
18974;DHT22;9621;48.690;9.466;2022-12-18T14:30:55;-2.20;99.90
18974;DHT22;9621;48.690;9.466;2022-12-18T14:33:26;-2.10;99.90
18974;DHT22;9621;48.690;9.466;2022-12-18T14:35:56;-2.40;99.90
18974;DHT22;9621;48.690;9.466;2022-12-18T14:38:29;-2.50;99.90
18974;DHT22;9621;48.690;9.466;2022-12-18T14:40:57;-2.60;99.90
18974;DHT22;9621;48.690;9.466;2022-12-18T14:43:26;-2.70;99.90
18974;DHT22;9621;48.690;9.466;2022-12-18T14:45:53;-2.80;99.90
18974;DHT22;9621;48.690;9.466;2022-12-18T14:48:35;-2.90;99.90
18974;DHT22;9621;48.690;9.466;2022-12-18T14:51:06;-2.90;99.90
18974;DHT22;9621;48.690;9.466;2022-12-18T14:53:39;-3.00;99.90
18974;DHT22;9621;48.690;9.466;2022-12-18T14:56:15;-3.10;99.90
18974;DHT22;9621;48.690;9.466;2022-12-18T14:58:47;-3.20;99.90
18974;DHT22;9621;48.690;9.466;2022-12-18T15:01:36;-3.60;99.90
18974;DHT22;9621;48.690;9.466;2022-12-18T15:04:32;-3.40;99.90
18974;DHT22;9621;48.690;9.466;2022-12-18T15:07:14;-3.60;99.90
18974;DHT22;9621;48.690;9.466;2022-12-18T15:10:11;-3.70;99.90
18974;DHT22;9621;48.690;9.466;2022-12-18T15:15:48;-4.00;99.90
18974;DHT22;9621;48.690;9.466;2022-12-18T15:18:44;-4.10;99.90
18974;DHT22;9621;48.690;9.466;2022-12-18T15:21:22;-4.20;99.90
18974;DHT22;9621;48.690;9.466;2022-12-18T15:23:50;-4.30;99.90
18974;DHT22;9621;48.690;9.466;2022-12-18T15:26:22;-4.10;99.90
18974;DHT22;9621;48.690;9.466;2022-12-18T15:31:35;-4.50;99.90
18974;DHT22;9621;48.690;9.466;2022-12-18T15:34:21;-4.70;99.90
18974;DHT22;9621;48.690;9.466;2022-12-18T15:36:53;-4.80;99.90
18974;DHT22;9621;48.690;9.466;2022-12-18T15:39:50;-5.00;99.90
18974;DHT22;9621;48.690;9.466;2022-12-18T15:42:24;-5.10;99.90
18974;DHT22;9621;48.690;9.466;2022-12-18T15:45:11;-5.30;99.90
18974;DHT22;9621;48.690;9.466;2022-12-18T15:47:39;-5.30;99.90
18974;DHT22;9621;48.690;9.466;2022-12-18T15:50:10;-5.50;99.90
18974;DHT22;9621;48.690;9.466;2022-12-18T15:52:45;-5.60;99.90
18974;DHT22;9621;48.690;9.466;2022-12-18T15:55:19;-5.70;99.90
18974;DHT22;9621;48.690;9.466;2022-12-18T15:58:17;-5.80;99.90
18974;DHT22;9621;48.690;9.466;2022-12-18T16:00:55;-5.90;99.90
18974;DHT22;9621;48.690;9.466;2022-12-18T16:03:32;-6.00;99.90
18974;DHT22;9621;48.690;9.466;2022-12-18T16:05:59;-6.10;99.90
18974;DHT22;9621;48.690;9.466;2022-12-18T16:14:48;-6.40;99.90
18974;DHT22;9621;48.690;9.466;2022-12-18T16:17:51;-6.40;99.90
18974;DHT22;9621;48.690;9.466;2022-12-18T16:24:21;-6.70;99.90
18974;DHT22;9621;48.690;9.466;2022-12-18T16:27:20;-6.80;99.90
18974;DHT22;9621;48.690;9.466;2022-12-18T16:39:56;-7.10;99.90
18974;DHT22;9621;48.690;9.466;2022-12-18T18:24:09;-7.00;99.90
18974;DHT22;9621;48.690;9.466;2022-12-18T18:26:38;-6.90;99.90
18974;DHT22;9621;48.690;9.466;2022-12-18T18:29:16;-6.90;99.90
18974;DHT22;9621;48.690;9.466;2022-12-18T19:49:48;-6.20;99.90
18974;DHT22;9621;48.690;9.466;2022-12-18T19:52:20;-4.60;99.90
18974;DHT22;9621;48.690;9.466;2022-12-18T19:54:52;-6.30;99.90
18974;DHT22;9621;48.690;9.466;2022-12-18T19:57:19;-6.30;99.90
18974;DHT22;9621;48.690;9.466;2022-12-18T19:59:47;-6.30;99.90
18974;DHT22;9621;48.690;9.466;2022-12-18T20:02:14;-6.40;99.90
18974;DHT22;9621;48.690;9.466;2022-12-18T20:04:53;-6.40;99.90
18974;DHT22;9621;48.690;9.466;2022-12-18T20:07:30;-5.60;99.90
18974;DHT22;9621;48.690;9.466;2022-12-18T20:09:58;-5.20;99.90
18974;DHT22;9621;48.690;9.466;2022-12-18T20:12:31;-6.60;99.90
18974;DHT22;9621;48.690;9.466;2022-12-18T20:14:58;-6.60;99.90
18974;DHT22;9621;48.690;9.466;2022-12-18T20:17:26;-6.70;99.90
18974;DHT22;9621;48.690;9.466;2022-12-18T20:19:55;-6.70;99.90
18974;DHT22;9621;48.690;9.466;2022-12-18T20:22:22;-6.60;99.90
18974;DHT22;9621;48.690;9.466;2022-12-18T20:24:50;-6.70;99.90
18974;DHT22;9621;48.690;9.466;2022-12-18T20:27:17;-5.00;99.90
18974;DHT22;9621;48.690;9.466;2022-12-18T20:29:44;-5.50;99.90
18974;DHT22;9621;48.690;9.466;2022-12-18T20:32:13;-6.60;99.90
18974;DHT22;9621;48.690;9.466;2022-12-18T20:34:41;-6.70;99.90
18974;DHT22;9621;48.690;9.466;2022-12-18T20:37:09;-6.70;99.90
18974;DHT22;9621;48.690;9.466;2022-12-18T20:39:38;-6.70;99.90
18974;DHT22;9621;48.690;9.466;2022-12-18T20:42:05;-4.90;99.90
18974;DHT22;9621;48.690;9.466;2022-12-18T20:44:32;-5.00;99.90
18974;DHT22;9621;48.690;9.466;2022-12-18T20:47:00;-6.60;99.90
18974;DHT22;9621;48.690;9.466;2022-12-18T20:49:28;-6.70;99.90
18974;DHT22;9621;48.690;9.466;2022-12-18T20:51:56;-6.70;99.90
18974;DHT22;9621;48.690;9.466;2022-12-18T20:54:27;-7.10;99.90
18974;DHT22;9621;48.690;9.466;2022-12-18T20:56:55;-6.70;99.90
18974;DHT22;9621;48.690;9.466;2022-12-18T20:59:23;-6.80;99.90
18974;DHT22;9621;48.690;9.466;2022-12-18T21:01:51;-6.80;99.90
18974;DHT22;9621;48.690;9.466;2022-12-18T21:04:18;-5.30;99.90
18974;DHT22;9621;48.690;9.466;2022-12-18T21:06:46;-6.80;99.90
18974;DHT22;9621;48.690;9.466;2022-12-18T21:09:19;-6.70;99.90
18974;DHT22;9621;48.690;9.466;2022-12-18T21:11:54;-6.60;99.90
18974;DHT22;9621;48.690;9.466;2022-12-18T21:14:39;-6.30;99.90
18974;DHT22;9621;48.690;9.466;2022-12-18T21:17:07;-6.50;99.90
18974;DHT22;9621;48.690;9.466;2022-12-18T21:19:36;-6.50;99.90
18974;DHT22;9621;48.690;9.466;2022-12-18T21:22:07;-6.40;99.90
18974;DHT22;9621;48.690;9.466;2022-12-18T21:24:34;-6.40;99.90
18974;DHT22;9621;48.690;9.466;2022-12-18T21:27:03;-6.50;99.90
18974;DHT22;9621;48.690;9.466;2022-12-18T21:29:30;-6.20;99.90
18974;DHT22;9621;48.690;9.466;2022-12-18T21:31:57;-6.20;99.90
18974;DHT22;9621;48.690;9.466;2022-12-18T21:34:26;-6.10;99.90
18974;DHT22;9621;48.690;9.466;2022-12-18T21:36:55;-5.40;99.90
18974;DHT22;9621;48.690;9.466;2022-12-18T21:39:23;-5.90;99.90
18974;DHT22;9621;48.690;9.466;2022-12-18T21:41:51;-5.90;99.90
18974;DHT22;9621;48.690;9.466;2022-12-18T21:44:37;-5.90;99.90
18974;DHT22;9621;48.690;9.466;2022-12-18T21:47:07;-5.80;99.90
18974;DHT22;9621;48.690;9.466;2022-12-18T21:49:34;-5.70;99.90
18974;DHT22;9621;48.690;9.466;2022-12-18T21:52:02;-5.60;99.90
18974;DHT22;9621;48.690;9.466;2022-12-18T21:54:29;-5.50;99.90
18974;DHT22;9621;48.690;9.466;2022-12-18T21:56:58;-5.60;99.90
18974;DHT22;9621;48.690;9.466;2022-12-18T21:59:27;-5.50;99.90
18974;DHT22;9621;48.690;9.466;2022-12-18T22:01:59;-5.30;99.90
18974;DHT22;9621;48.690;9.466;2022-12-18T22:04:27;-5.30;99.90
18974;DHT22;9621;48.690;9.466;2022-12-18T22:06:55;-5.20;99.90
18974;DHT22;9621;48.690;9.466;2022-12-18T22:09:26;-5.20;99.90
18974;DHT22;9621;48.690;9.466;2022-12-18T22:11:56;-5.30;99.90
18974;DHT22;9621;48.690;9.466;2022-12-18T22:14:24;-5.20;99.90
18974;DHT22;9621;48.690;9.466;2022-12-18T22:16:59;-5.20;99.90
18974;DHT22;9621;48.690;9.466;2022-12-18T22:19:27;-4.00;99.90
18974;DHT22;9621;48.690;9.466;2022-12-18T22:21:57;-5.10;99.90
18974;DHT22;9621;48.690;9.466;2022-12-18T22:24:34;-5.20;99.90
18974;DHT22;9621;48.690;9.466;2022-12-18T22:27:01;-5.20;99.90
18974;DHT22;9621;48.690;9.466;2022-12-18T22:29:29;-5.20;99.90
18974;DHT22;9621;48.690;9.466;2022-12-18T22:32:16;-5.80;99.90
18974;DHT22;9621;48.690;9.466;2022-12-18T22:34:43;-5.00;99.90
18974;DHT22;9621;48.690;9.466;2022-12-18T22:37:13;-5.30;99.90
18974;DHT22;9621;48.690;9.466;2022-12-18T22:39:49;-3.80;99.90
18974;DHT22;9621;48.690;9.466;2022-12-18T22:44:51;-5.30;99.90
18974;DHT22;9621;48.690;9.466;2022-12-18T22:47:20;-5.30;99.90
18974;DHT22;9621;48.690;9.466;2022-12-18T22:49:47;-5.30;99.90
18974;DHT22;9621;48.690;9.466;2022-12-18T22:52:14;-5.30;99.90
18974;DHT22;9621;48.690;9.466;2022-12-18T22:54:41;-5.10;99.90
18974;DHT22;9621;48.690;9.466;2022-12-18T22:57:08;-5.20;99.90
18974;DHT22;9621;48.690;9.466;2022-12-18T22:59:35;-5.20;99.90
18974;DHT22;9621;48.690;9.466;2022-12-18T23:02:02;-5.10;99.90
18974;DHT22;9621;48.690;9.466;2022-12-18T23:04:30;-4.50;99.90
18974;DHT22;9621;48.690;9.466;2022-12-18T23:06:58;-5.00;99.90
18974;DHT22;9621;48.690;9.466;2022-12-18T23:09:25;-5.00;99.90
18974;DHT22;9621;48.690;9.466;2022-12-18T23:11:52;-4.90;99.90
18974;DHT22;9621;48.690;9.466;2022-12-18T23:14:19;-4.90;99.90
18974;DHT22;9621;48.690;9.466;2022-12-18T23:16:46;-4.80;99.90
18974;DHT22;9621;48.690;9.466;2022-12-18T23:19:12;-4.80;99.90
18974;DHT22;9621;48.690;9.466;2022-12-18T23:21:41;-4.80;99.90
18974;DHT22;9621;48.690;9.466;2022-12-18T23:24:08;-4.70;99.90
18974;DHT22;9621;48.690;9.466;2022-12-18T23:26:35;-4.60;99.90
18974;DHT22;9621;48.690;9.466;2022-12-18T23:29:03;-4.60;99.90
18974;DHT22;9621;48.690;9.466;2022-12-18T23:31:32;-4.60;99.90
18974;DHT22;9621;48.690;9.466;2022-12-18T23:34:00;-4.50;99.90
18974;DHT22;9621;48.690;9.466;2022-12-18T23:36:28;-4.50;99.90
18974;DHT22;9621;48.690;9.466;2022-12-18T23:38:59;-4.50;99.90
18974;DHT22;9621;48.690;9.466;2022-12-18T23:41:28;-4.50;99.90
18974;DHT22;9621;48.690;9.466;2022-12-18T23:43:56;-4.50;99.90
18974;DHT22;9621;48.690;9.466;2022-12-18T23:46:25;-4.40;99.90
18974;DHT22;9621;48.690;9.466;2022-12-18T23:48:53;-4.40;99.90
18974;DHT22;9621;48.690;9.466;2022-12-18T23:51:21;-4.40;99.90
18974;DHT22;9621;48.690;9.466;2022-12-18T23:53:50;-4.30;99.90
18974;DHT22;9621;48.690;9.466;2022-12-18T23:56:18;-4.30;99.90
18974;DHT22;9621;48.690;9.466;2022-12-18T23:58:46;-4.30;99.90
